sensor_id;sensor_type;location;lat;lon;timestamp;P1;durP1;ratioP1;P2;durP2;ratioP2
67602;SDS011;54417;47.454;18.918;2023-02-03T00:03:17;6.78;;;2.17;;
67602;SDS011;54417;47.454;18.918;2023-02-03T00:08:41;3.47;;;2.38;;
67602;SDS011;54417;47.454;18.918;2023-02-03T00:14:06;4.38;;;2.20;;
67602;SDS011;54417;47.454;18.918;2023-02-03T00:19:30;3.75;;;2.50;;
67602;SDS011;54417;47.454;18.918;2023-02-03T00:24:54;8.30;;;2.13;;
67602;SDS011;54417;47.454;18.918;2023-02-03T00:30:19;2.85;;;2.13;;
67602;SDS011;54417;47.454;18.918;2023-02-03T00:35:44;9.13;;;2.47;;
67602;SDS011;54417;47.454;18.918;2023-02-03T00:41:07;6.30;;;2.65;;
67602;SDS011;54417;47.454;18.918;2023-02-03T00:46:32;6.05;;;2.58;;
67602;SDS011;54417;47.454;18.918;2023-02-03T00:51:58;4.43;;;2.60;;
67602;SDS011;54417;47.454;18.918;2023-02-03T00:57:22;4.70;;;2.95;;
67602;SDS011;54417;47.454;18.918;2023-02-03T01:02:47;3.47;;;2.40;;
67602;SDS011;54417;47.454;18.918;2023-02-03T01:08:10;5.95;;;2.80;;
67602;SDS011;54417;47.454;18.918;2023-02-03T01:13:34;7.28;;;2.72;;
67602;SDS011;54417;47.454;18.918;2023-02-03T01:19:04;5.63;;;2.40;;
67602;SDS011;54417;47.454;18.918;2023-02-03T01:24:28;8.15;;;3.05;;
67602;SDS011;54417;47.454;18.918;2023-02-03T01:29:52;5.80;;;2.60;;
67602;SDS011;54417;47.454;18.918;2023-02-03T01:35:17;6.90;;;2.72;;
67602;SDS011;54417;47.454;18.918;2023-02-03T01:40:41;4.78;;;2.80;;
67602;SDS011;54417;47.454;18.918;2023-02-03T01:46:13;4.45;;;2.40;;
67602;SDS011;54417;47.454;18.918;2023-02-03T01:51:46;9.93;;;2.45;;
67602;SDS011;54417;47.454;18.918;2023-02-03T01:57:12;4.10;;;2.42;;
67602;SDS011;54417;47.454;18.918;2023-02-03T02:02:39;5.47;;;2.10;;
67602;SDS011;54417;47.454;18.918;2023-02-03T02:08:07;10.73;;;2.53;;
67602;SDS011;54417;47.454;18.918;2023-02-03T02:13:32;5.30;;;2.28;;
67602;SDS011;54417;47.454;18.918;2023-02-03T02:19:00;3.55;;;2.40;;
67602;SDS011;54417;47.454;18.918;2023-02-03T02:30:42;3.40;;;2.42;;
67602;SDS011;54417;47.454;18.918;2023-02-03T02:36:21;3.33;;;2.67;;
67602;SDS011;54417;47.454;18.918;2023-02-03T02:41:54;5.60;;;3.05;;
67602;SDS011;54417;47.454;18.918;2023-02-03T02:47:23;4.47;;;2.42;;
67602;SDS011;54417;47.454;18.918;2023-02-03T02:52:49;3.60;;;2.22;;
67602;SDS011;54417;47.454;18.918;2023-02-03T02:58:15;8.05;;;2.88;;
67602;SDS011;54417;47.454;18.918;2023-02-03T03:03:41;5.93;;;2.38;;
67602;SDS011;54417;47.454;18.918;2023-02-03T03:09:08;4.35;;;2.42;;
67602;SDS011;54417;47.454;18.918;2023-02-03T03:14:34;7.18;;;2.58;;
67602;SDS011;54417;47.454;18.918;2023-02-03T03:20:02;4.60;;;2.70;;
67602;SDS011;54417;47.454;18.918;2023-02-03T03:25:33;3.97;;;2.58;;
67602;SDS011;54417;47.454;18.918;2023-02-03T03:31:01;3.17;;;2.35;;
67602;SDS011;54417;47.454;18.918;2023-02-03T03:36:26;4.28;;;2.63;;
67602;SDS011;54417;47.454;18.918;2023-02-03T03:41:59;5.35;;;3.30;;
67602;SDS011;54417;47.454;18.918;2023-02-03T03:47:31;6.50;;;3.15;;
67602;SDS011;54417;47.454;18.918;2023-02-03T03:53:00;6.95;;;2.33;;
67602;SDS011;54417;47.454;18.918;2023-02-03T03:58:26;5.47;;;2.75;;
67602;SDS011;54417;47.454;18.918;2023-02-03T04:03:53;5.28;;;2.08;;
67602;SDS011;54417;47.454;18.918;2023-02-03T04:09:20;3.53;;;1.70;;
67602;SDS011;54417;47.454;18.918;2023-02-03T04:14:45;5.07;;;2.45;;
67602;SDS011;54417;47.454;18.918;2023-02-03T04:20:10;9.60;;;1.90;;
67602;SDS011;54417;47.454;18.918;2023-02-03T04:25:34;3.00;;;1.90;;
67602;SDS011;54417;47.454;18.918;2023-02-03T04:31:00;4.47;;;1.83;;
67602;SDS011;54417;47.454;18.918;2023-02-03T04:36:24;3.35;;;2.05;;
67602;SDS011;54417;47.454;18.918;2023-02-03T04:41:48;2.40;;;1.55;;
67602;SDS011;54417;47.454;18.918;2023-02-03T04:47:16;3.85;;;1.67;;
67602;SDS011;54417;47.454;18.918;2023-02-03T04:52:40;2.38;;;1.27;;
67602;SDS011;54417;47.454;18.918;2023-02-03T04:58:04;2.63;;;1.30;;
67602;SDS011;54417;47.454;18.918;2023-02-03T05:03:29;2.13;;;1.85;;
67602;SDS011;54417;47.454;18.918;2023-02-03T05:08:54;5.18;;;1.45;;
67602;SDS011;54417;47.454;18.918;2023-02-03T05:14:18;1.27;;;1.17;;
67602;SDS011;54417;47.454;18.918;2023-02-03T05:19:43;3.38;;;1.73;;
67602;SDS011;54417;47.454;18.918;2023-02-03T05:25:07;2.67;;;1.80;;
67602;SDS011;54417;47.454;18.918;2023-02-03T05:30:31;4.45;;;2.13;;
67602;SDS011;54417;47.454;18.918;2023-02-03T05:35:57;4.70;;;2.72;;
67602;SDS011;54417;47.454;18.918;2023-02-03T05:41:25;3.70;;;2.40;;
67602;SDS011;54417;47.454;18.918;2023-02-03T05:47:07;8.20;;;2.53;;
67602;SDS011;54417;47.454;18.918;2023-02-03T05:52:32;4.25;;;2.97;;
67602;SDS011;54417;47.454;18.918;2023-02-03T05:57:58;4.95;;;3.33;;
67602;SDS011;54417;47.454;18.918;2023-02-03T06:03:22;4.10;;;2.88;;
67602;SDS011;54417;47.454;18.918;2023-02-03T06:08:47;6.07;;;3.13;;
67602;SDS011;54417;47.454;18.918;2023-02-03T06:14:15;4.18;;;3.08;;
67602;SDS011;54417;47.454;18.918;2023-02-03T06:19:39;6.60;;;3.00;;
67602;SDS011;54417;47.454;18.918;2023-02-03T06:25:05;6.53;;;3.03;;
67602;SDS011;54417;47.454;18.918;2023-02-03T06:30:34;6.47;;;2.78;;
67602;SDS011;54417;47.454;18.918;2023-02-03T06:35:58;6.40;;;3.38;;
67602;SDS011;54417;47.454;18.918;2023-02-03T06:41:24;7.95;;;3.03;;
67602;SDS011;54417;47.454;18.918;2023-02-03T06:46:51;3.65;;;2.47;;
67602;SDS011;54417;47.454;18.918;2023-02-03T06:52:16;6.22;;;2.85;;
67602;SDS011;54417;47.454;18.918;2023-02-03T06:57:44;6.80;;;2.92;;
67602;SDS011;54417;47.454;18.918;2023-02-03T07:03:09;13.32;;;3.65;;
67602;SDS011;54417;47.454;18.918;2023-02-03T07:08:33;10.35;;;3.60;;
67602;SDS011;54417;47.454;18.918;2023-02-03T07:13:58;5.68;;;3.13;;
67602;SDS011;54417;47.454;18.918;2023-02-03T07:19:23;3.28;;;2.97;;
67602;SDS011;54417;47.454;18.918;2023-02-03T07:24:47;23.45;;;9.07;;
67602;SDS011;54417;47.454;18.918;2023-02-03T07:30:13;27.85;;;10.10;;
67602;SDS011;54417;47.454;18.918;2023-02-03T07:35:37;44.80;;;17.38;;
67602;SDS011;54417;47.454;18.918;2023-02-03T07:41:01;17.30;;;7.78;;
67602;SDS011;54417;47.454;18.918;2023-02-03T07:46:27;28.67;;;11.60;;
67602;SDS011;54417;47.454;18.918;2023-02-03T07:51:51;17.40;;;7.43;;
67602;SDS011;54417;47.454;18.918;2023-02-03T07:57:15;27.60;;;8.57;;
67602;SDS011;54417;47.454;18.918;2023-02-03T08:02:40;20.92;;;7.05;;
67602;SDS011;54417;47.454;18.918;2023-02-03T08:08:04;10.27;;;4.40;;
67602;SDS011;54417;47.454;18.918;2023-02-03T08:13:32;22.17;;;7.65;;
67602;SDS011;54417;47.454;18.918;2023-02-03T08:18:57;19.30;;;9.18;;
67602;SDS011;54417;47.454;18.918;2023-02-03T08:24:21;29.08;;;11.73;;
67602;SDS011;54417;47.454;18.918;2023-02-03T08:29:45;21.38;;;8.73;;
67602;SDS011;54417;47.454;18.918;2023-02-03T08:35:11;15.60;;;7.13;;
67602;SDS011;54417;47.454;18.918;2023-02-03T08:40:35;143.80;;;46.10;;
67602;SDS011;54417;47.454;18.918;2023-02-03T08:46:01;95.20;;;28.90;;
67602;SDS011;54417;47.454;18.918;2023-02-03T08:51:29;17.42;;;7.65;;
67602;SDS011;54417;47.454;18.918;2023-02-03T08:57:00;8.18;;;3.80;;
67602;SDS011;54417;47.454;18.918;2023-02-03T09:02:27;13.82;;;5.57;;
67602;SDS011;54417;47.454;18.918;2023-02-03T09:07:53;4.68;;;3.08;;
67602;SDS011;54417;47.454;18.918;2023-02-03T09:13:16;8.98;;;3.33;;
67602;SDS011;54417;47.454;18.918;2023-02-03T09:18:43;8.63;;;4.72;;
67602;SDS011;54417;47.454;18.918;2023-02-03T09:24:09;17.10;;;7.97;;
67602;SDS011;54417;47.454;18.918;2023-02-03T09:29:38;13.77;;;6.80;;
67602;SDS011;54417;47.454;18.918;2023-02-03T09:35:02;29.05;;;9.88;;
67602;SDS011;54417;47.454;18.918;2023-02-03T09:40:28;14.85;;;7.43;;
67602;SDS011;54417;47.454;18.918;2023-02-03T09:45:59;11.98;;;6.03;;
67602;SDS011;54417;47.454;18.918;2023-02-03T09:51:28;15.68;;;5.15;;
67602;SDS011;54417;47.454;18.918;2023-02-03T09:57:00;19.33;;;10.53;;
67602;SDS011;54417;47.454;18.918;2023-02-03T10:02:34;19.25;;;7.78;;
67602;SDS011;54417;47.454;18.918;2023-02-03T10:08:12;15.68;;;6.72;;
67602;SDS011;54417;47.454;18.918;2023-02-03T10:13:49;10.07;;;6.32;;
67602;SDS011;54417;47.454;18.918;2023-02-03T10:19:20;10.18;;;6.00;;
67602;SDS011;54417;47.454;18.918;2023-02-03T10:24:50;19.95;;;6.57;;
67602;SDS011;54417;47.454;18.918;2023-02-03T10:30:20;12.98;;;5.97;;
67602;SDS011;54417;47.454;18.918;2023-02-03T10:35:47;10.50;;;5.45;;
67602;SDS011;54417;47.454;18.918;2023-02-03T10:41:13;5.63;;;3.83;;
67602;SDS011;54417;47.454;18.918;2023-02-03T10:46:39;8.88;;;3.95;;
67602;SDS011;54417;47.454;18.918;2023-02-03T10:52:05;8.32;;;4.13;;
67602;SDS011;54417;47.454;18.918;2023-02-03T10:57:29;8.45;;;4.57;;
67602;SDS011;54417;47.454;18.918;2023-02-03T11:02:56;4.97;;;3.55;;
67602;SDS011;54417;47.454;18.918;2023-02-03T11:08:26;10.32;;;5.55;;
67602;SDS011;54417;47.454;18.918;2023-02-03T11:13:53;13.80;;;5.03;;
67602;SDS011;54417;47.454;18.918;2023-02-03T11:19:21;8.05;;;3.92;;
67602;SDS011;54417;47.454;18.918;2023-02-03T11:24:47;4.22;;;3.15;;
67602;SDS011;54417;47.454;18.918;2023-02-03T11:30:13;7.50;;;3.20;;
67602;SDS011;54417;47.454;18.918;2023-02-03T11:35:50;11.43;;;3.53;;
67602;SDS011;54417;47.454;18.918;2023-02-03T11:41:18;10.23;;;3.97;;
67602;SDS011;54417;47.454;18.918;2023-02-03T11:46:47;3.63;;;2.90;;
67602;SDS011;54417;47.454;18.918;2023-02-03T11:52:25;7.20;;;3.13;;
67602;SDS011;54417;47.454;18.918;2023-02-03T11:58:14;8.93;;;3.75;;
67602;SDS011;54417;47.454;18.918;2023-02-03T12:04:10;55.80;;;16.70;;
67602;SDS011;54417;47.454;18.918;2023-02-03T12:09:49;17.13;;;6.50;;
67602;SDS011;54417;47.454;18.918;2023-02-03T12:15:30;3.50;;;2.55;;
67602;SDS011;54417;47.454;18.918;2023-02-03T12:21:32;2.20;;;1.67;;
67602;SDS011;54417;47.454;18.918;2023-02-03T12:27:11;2.80;;;1.90;;
67602;SDS011;54417;47.454;18.918;2023-02-03T12:32:44;4.45;;;1.88;;
67602;SDS011;54417;47.454;18.918;2023-02-03T12:38:15;2.53;;;2.05;;
67602;SDS011;54417;47.454;18.918;2023-02-03T12:43:44;2.63;;;2.25;;
67602;SDS011;54417;47.454;18.918;2023-02-03T12:49:13;2.72;;;2.53;;
67602;SDS011;54417;47.454;18.918;2023-02-03T12:54:40;6.05;;;3.35;;
67602;SDS011;54417;47.454;18.918;2023-02-03T13:00:17;7.47;;;3.05;;
67602;SDS011;54417;47.454;18.918;2023-02-03T13:05:50;7.40;;;3.35;;
67602;SDS011;54417;47.454;18.918;2023-02-03T13:11:20;9.20;;;4.50;;
67602;SDS011;54417;47.454;18.918;2023-02-03T13:16:52;8.80;;;4.90;;
67602;SDS011;54417;47.454;18.918;2023-02-03T13:22:20;11.02;;;5.50;;
67602;SDS011;54417;47.454;18.918;2023-02-03T13:27:45;10.02;;;5.07;;
67602;SDS011;54417;47.454;18.918;2023-02-03T13:45:07;7.45;;;4.85;;
67602;SDS011;54417;47.454;18.918;2023-02-03T13:50:38;10.63;;;5.00;;
67602;SDS011;54417;47.454;18.918;2023-02-03T13:56:03;6.45;;;5.05;;
67602;SDS011;54417;47.454;18.918;2023-02-03T14:01:32;6.18;;;4.88;;
67602;SDS011;54417;47.454;18.918;2023-02-03T14:07:00;7.28;;;4.88;;
67602;SDS011;54417;47.454;18.918;2023-02-03T14:18:03;9.82;;;5.45;;
67602;SDS011;54417;47.454;18.918;2023-02-03T14:29:29;11.02;;;5.72;;
67602;SDS011;54417;47.454;18.918;2023-02-03T14:34:56;8.23;;;5.32;;
67602;SDS011;54417;47.454;18.918;2023-02-03T14:40:29;13.95;;;7.05;;
67602;SDS011;54417;47.454;18.918;2023-02-03T14:46:01;13.10;;;6.53;;
67602;SDS011;54417;47.454;18.918;2023-02-03T14:51:42;8.95;;;5.25;;
67602;SDS011;54417;47.454;18.918;2023-02-03T14:57:23;11.13;;;6.47;;
67602;SDS011;54417;47.454;18.918;2023-02-03T15:03:19;9.63;;;6.22;;
67602;SDS011;54417;47.454;18.918;2023-02-03T15:08:47;11.95;;;5.82;;
67602;SDS011;54417;47.454;18.918;2023-02-03T15:14:20;9.80;;;6.45;;
67602;SDS011;54417;47.454;18.918;2023-02-03T15:19:46;12.98;;;7.50;;
67602;SDS011;54417;47.454;18.918;2023-02-03T15:25:15;13.07;;;7.63;;
67602;SDS011;54417;47.454;18.918;2023-02-03T15:30:42;11.43;;;5.78;;
67602;SDS011;54417;47.454;18.918;2023-02-03T15:36:07;10.48;;;5.13;;
67602;SDS011;54417;47.454;18.918;2023-02-03T15:41:36;7.60;;;3.00;;
67602;SDS011;54417;47.454;18.918;2023-02-03T15:47:03;13.75;;;3.72;;
67602;SDS011;54417;47.454;18.918;2023-02-03T15:52:38;4.05;;;3.17;;
67602;SDS011;54417;47.454;18.918;2023-02-03T15:58:10;3.45;;;2.30;;
67602;SDS011;54417;47.454;18.918;2023-02-03T16:03:42;5.40;;;2.67;;
67602;SDS011;54417;47.454;18.918;2023-02-03T16:09:25;6.47;;;2.70;;
67602;SDS011;54417;47.454;18.918;2023-02-03T16:14:51;5.65;;;2.92;;
67602;SDS011;54417;47.454;18.918;2023-02-03T16:20:20;6.38;;;3.13;;
67602;SDS011;54417;47.454;18.918;2023-02-03T16:26:05;4.15;;;2.72;;
67602;SDS011;54417;47.454;18.918;2023-02-03T16:31:42;2.53;;;1.92;;
67602;SDS011;54417;47.454;18.918;2023-02-03T16:37:27;5.05;;;2.05;;
67602;SDS011;54417;47.454;18.918;2023-02-03T16:43:12;2.60;;;1.77;;
67602;SDS011;54417;47.454;18.918;2023-02-03T16:48:55;3.17;;;2.35;;
67602;SDS011;54417;47.454;18.918;2023-02-03T16:54:37;19.13;;;10.67;;
67602;SDS011;54417;47.454;18.918;2023-02-03T17:00:01;5.05;;;2.85;;
67602;SDS011;54417;47.454;18.918;2023-02-03T17:05:26;2.65;;;2.08;;
67602;SDS011;54417;47.454;18.918;2023-02-03T17:10:52;4.10;;;2.20;;
67602;SDS011;54417;47.454;18.918;2023-02-03T17:16:17;4.88;;;2.50;;
67602;SDS011;54417;47.454;18.918;2023-02-03T17:21:41;5.57;;;2.33;;
67602;SDS011;54417;47.454;18.918;2023-02-03T17:27:07;2.90;;;2.42;;
67602;SDS011;54417;47.454;18.918;2023-02-03T17:32:31;4.15;;;2.55;;
67602;SDS011;54417;47.454;18.918;2023-02-03T17:38:01;2.80;;;2.03;;
67602;SDS011;54417;47.454;18.918;2023-02-03T17:43:26;4.32;;;3.15;;
67602;SDS011;54417;47.454;18.918;2023-02-03T17:49:11;3.75;;;2.88;;
67602;SDS011;54417;47.454;18.918;2023-02-03T17:54:52;4.47;;;2.80;;
67602;SDS011;54417;47.454;18.918;2023-02-03T18:00:18;3.00;;;2.70;;
67602;SDS011;54417;47.454;18.918;2023-02-03T18:05:48;3.65;;;2.20;;
67602;SDS011;54417;47.454;18.918;2023-02-03T18:11:12;2.83;;;2.35;;
67602;SDS011;54417;47.454;18.918;2023-02-03T18:16:38;3.33;;;2.67;;
67602;SDS011;54417;47.454;18.918;2023-02-03T18:22:03;6.20;;;3.50;;
67602;SDS011;54417;47.454;18.918;2023-02-03T18:27:26;5.78;;;3.90;;
67602;SDS011;54417;47.454;18.918;2023-02-03T18:32:51;4.72;;;3.63;;
67602;SDS011;54417;47.454;18.918;2023-02-03T18:38:15;7.43;;;4.40;;
67602;SDS011;54417;47.454;18.918;2023-02-03T18:43:39;6.82;;;4.70;;
67602;SDS011;54417;47.454;18.918;2023-02-03T18:49:05;10.13;;;4.82;;
67602;SDS011;54417;47.454;18.918;2023-02-03T18:54:30;5.65;;;4.20;;
67602;SDS011;54417;47.454;18.918;2023-02-03T18:59:54;5.75;;;3.53;;
67602;SDS011;54417;47.454;18.918;2023-02-03T19:05:21;5.18;;;3.78;;
67602;SDS011;54417;47.454;18.918;2023-02-03T19:10:45;6.95;;;3.85;;
67602;SDS011;54417;47.454;18.918;2023-02-03T19:16:12;17.17;;;4.53;;
67602;SDS011;54417;47.454;18.918;2023-02-03T19:21:39;7.30;;;4.05;;
67602;SDS011;54417;47.454;18.918;2023-02-03T19:27:03;9.32;;;3.22;;
67602;SDS011;54417;47.454;18.918;2023-02-03T19:32:26;3.17;;;2.08;;
67602;SDS011;54417;47.454;18.918;2023-02-03T19:37:52;1.60;;;1.38;;
67602;SDS011;54417;47.454;18.918;2023-02-03T19:43:15;1.98;;;1.42;;
67602;SDS011;54417;47.454;18.918;2023-02-03T19:48:39;2.45;;;1.33;;
67602;SDS011;54417;47.454;18.918;2023-02-03T19:54:04;3.90;;;1.30;;
67602;SDS011;54417;47.454;18.918;2023-02-03T19:59:28;1.75;;;1.48;;
67602;SDS011;54417;47.454;18.918;2023-02-03T20:04:52;2.97;;;1.70;;
67602;SDS011;54417;47.454;18.918;2023-02-03T20:10:17;2.25;;;2.03;;
67602;SDS011;54417;47.454;18.918;2023-02-03T20:15:41;1.52;;;1.42;;
67602;SDS011;54417;47.454;18.918;2023-02-03T20:21:08;6.22;;;1.98;;
67602;SDS011;54417;47.454;18.918;2023-02-03T20:26:33;3.45;;;2.75;;
67602;SDS011;54417;47.454;18.918;2023-02-03T20:31:57;5.55;;;1.83;;
67602;SDS011;54417;47.454;18.918;2023-02-03T20:37:20;3.00;;;1.52;;
67602;SDS011;54417;47.454;18.918;2023-02-03T20:42:46;8.85;;;1.30;;
67602;SDS011;54417;47.454;18.918;2023-02-03T20:48:09;2.50;;;2.00;;
67602;SDS011;54417;47.454;18.918;2023-02-03T20:53:34;5.00;;;1.48;;
67602;SDS011;54417;47.454;18.918;2023-02-03T20:59:00;1.70;;;1.30;;
67602;SDS011;54417;47.454;18.918;2023-02-03T21:04:24;1.65;;;1.08;;
67602;SDS011;54417;47.454;18.918;2023-02-03T21:10:09;3.92;;;1.58;;
67602;SDS011;54417;47.454;18.918;2023-02-03T21:15:43;5.03;;;1.67;;
67602;SDS011;54417;47.454;18.918;2023-02-03T21:21:10;9.82;;;1.95;;
67602;SDS011;54417;47.454;18.918;2023-02-03T21:26:37;5.20;;;1.30;;
67602;SDS011;54417;47.454;18.918;2023-02-03T21:32:02;4.97;;;1.80;;
67602;SDS011;54417;47.454;18.918;2023-02-03T21:37:35;9.20;;;1.60;;
67602;SDS011;54417;47.454;18.918;2023-02-03T21:43:00;9.90;;;1.58;;
67602;SDS011;54417;47.454;18.918;2023-02-03T21:48:27;2.40;;;1.13;;
67602;SDS011;54417;47.454;18.918;2023-02-03T21:53:54;4.43;;;1.42;;
67602;SDS011;54417;47.454;18.918;2023-02-03T21:59:20;9.85;;;1.88;;
67602;SDS011;54417;47.454;18.918;2023-02-03T22:04:47;14.90;;;2.15;;
67602;SDS011;54417;47.454;18.918;2023-02-03T22:10:10;9.88;;;2.00;;
67602;SDS011;54417;47.454;18.918;2023-02-03T22:15:34;11.60;;;2.50;;
67602;SDS011;54417;47.454;18.918;2023-02-03T22:20:59;11.50;;;2.17;;
67602;SDS011;54417;47.454;18.918;2023-02-03T22:26:24;13.70;;;2.42;;
67602;SDS011;54417;47.454;18.918;2023-02-03T22:31:48;8.48;;;1.77;;
67602;SDS011;54417;47.454;18.918;2023-02-03T22:37:13;7.07;;;1.95;;
67602;SDS011;54417;47.454;18.918;2023-02-03T22:42:37;12.45;;;3.20;;
67602;SDS011;54417;47.454;18.918;2023-02-03T22:48:01;14.43;;;2.60;;
67602;SDS011;54417;47.454;18.918;2023-02-03T22:53:26;7.43;;;2.13;;
67602;SDS011;54417;47.454;18.918;2023-02-03T22:58:50;4.35;;;1.88;;
67602;SDS011;54417;47.454;18.918;2023-02-03T23:04:14;5.18;;;1.63;;
67602;SDS011;54417;47.454;18.918;2023-02-03T23:09:39;6.78;;;2.03;;
67602;SDS011;54417;47.454;18.918;2023-02-03T23:15:03;7.40;;;2.47;;
67602;SDS011;54417;47.454;18.918;2023-02-03T23:20:28;8.18;;;2.45;;
67602;SDS011;54417;47.454;18.918;2023-02-03T23:25:53;8.00;;;1.83;;
67602;SDS011;54417;47.454;18.918;2023-02-03T23:31:17;12.85;;;1.85;;
67602;SDS011;54417;47.454;18.918;2023-02-03T23:36:41;3.65;;;1.58;;
67602;SDS011;54417;47.454;18.918;2023-02-03T23:42:06;10.55;;;2.08;;
67602;SDS011;54417;47.454;18.918;2023-02-03T23:47:30;8.48;;;1.85;;
67602;SDS011;54417;47.454;18.918;2023-02-03T23:52:54;5.95;;;1.58;;
67602;SDS011;54417;47.454;18.918;2023-02-03T23:58:19;7.03;;;2.13;;
